Manitou Springs, Colorado
Current Conditions -  °F | °C
As of 4:56 PM on Wednesday 26 Nov 2014 (Local Time) from KCWN Reporting Station
Clear Clear  
Wind Chill: -1°   Ceiling: Unl
Heat Index: -1°   Visibility: 10mi
Dew Point: -4°   Wind: 2mph
Humidity: 80%   Direction: NA
Pressure: 30.21"   Gusts: 13mph
Location:  38.86°N, 104.92°W
Report Text: KCWN 262356Z AUTO VRB02G11KT 10SM CLR M01/M04 A3021 RMK AO2 SLP268 T10071037 10016 21018 51012
Loading
Personal Weather Stations






























Interactive Weather Map New forecast layout! Learn more

10-Day Weather Forecast

Advertisements
Track Severe Weather on mobile